Colebrook, New Hampshire
Current Conditions -  °F | °C
As of 12:52 AM on Monday 20 Oct 2014 (Local Time) from KBML Reporting Station
Overcast Overcast  
Wind Chill: 33°   Ceiling: 4000
Heat Index: 38°   Visibility: 10mi
Dew Point: 27°   Wind: 7mph
Humidity: 65%   Direction: 290°WNW
Pressure: 29.88"   Gusts: NA
Location:  44.89°N, 71.48°W
Report Text: KBML 200452Z AUTO 29006KT 10SM OVC040 03/M03 A2988 RMK AO2 SLP127 T00331028 400780033
Loading
Personal Weather Stations






























Interactive Weather Map
Tropical Storm Tracking
New forecast layout! Learn more

10-Day Weather Forecast

Advertisements
Track Severe Weather on mobile